Time;durP1;ratioP1;P1;durP2;ratioP2;P2;SDS_P1;SDS_P2;PMS_P1;PMS_P2;Temp;Humidity;BMP_temperature;BMP_pressure;BME280_temperature;BME280_humidity;BME280_pressure;Samples;Min_cycle;Max_cycle;Signal;HPM_P1;HPM_P2
2021/11/28 00:00:05;;;;;;;74.40;46.08;;;;;;;1.90;100.00;97212.28;2038551;29;20227;-72
2021/11/28 00:01:07;;;;;;;69.13;45.25;;;;;;;1.82;100.00;97203.19;2039300;28;20238;-72
2021/11/28 00:02:08;;;;;;;76.85;45.60;;;;;;;1.81;100.00;97208.72;2038834;28;20733;-74
2021/11/28 00:03:10;;;;;;;76.45;46.97;;;;;;;1.79;100.00;97216.91;2038580;29;20748;-72
2021/11/28 00:04:14;;;;;;;73.38;46.22;;;;;;;1.75;100.00;97205.41;2030615;29;20227;-72
2021/11/28 00:05:17;;;;;;;75.60;47.75;;;;;;;1.73;100.00;97212.78;2038264;29;20231;-72
2021/11/28 00:06:22;;;;;;;77.00;46.63;;;;;;;1.68;100.00;97211.00;2031002;29;20224;-72
2021/11/28 00:07:31;;;;;;;75.25;46.28;;;;;;;1.64;100.00;97215.25;2038169;28;20250;-74
2021/11/28 00:08:43;;;;;;;72.88;45.47;;;;;;;1.62;100.00;97208.72;2039022;28;20229;-72
2021/11/28 00:09:57;;;;;;;80.70;46.35;;;;;;;1.59;100.00;97217.97;2038718;28;20313;-72
2021/11/28 00:11:03;;;;;;;73.13;44.67;;;;;;;1.54;100.00;97219.88;2038817;28;20756;-73
2021/11/28 00:12:14;;;;;;;75.38;46.22;;;;;;;1.52;100.00;97214.13;2038915;28;20756;-72
2021/11/28 00:14:33;;;;;;;67.75;43.95;;;;;;;1.40;100.00;97211.91;2026192;28;20226;-72
2021/11/28 00:15:34;;;;;;;74.82;45.65;;;;;;;1.36;100.00;97214.28;2039204;28;20223;-72
2021/11/28 00:16:38;;;;;;;75.53;45.92;;;;;;;1.33;100.00;97214.09;2038281;29;20227;-72
2021/11/28 00:17:40;;;;;;;73.20;46.42;;;;;;;1.31;100.00;97208.34;2038072;28;20247;-73
2021/11/28 00:18:42;;;;;;;74.07;47.13;;;;;;;1.30;100.00;97209.38;2039101;28;20685;-72
2021/11/28 00:19:43;;;;;;;77.63;45.90;;;;;;;1.27;100.00;97204.69;2038883;28;20229;-73
2021/11/28 00:20:46;;;;;;;85.43;48.47;;;;;;;1.24;100.00;97198.16;2038950;28;20231;-72
2021/11/28 00:21:46;;;;;;;75.45;45.95;;;;;;;1.24;100.00;97200.00;2039044;28;21492;-73
2021/11/28 00:22:50;;;;;;;76.77;46.47;;;;;;;1.22;100.00;97196.91;2039184;28;20230;-73
2021/11/28 00:23:51;;;;;;;72.28;46.53;;;;;;;1.18;100.00;97201.91;2039063;28;20233;-72
2021/11/28 00:24:54;;;;;;;69.82;46.63;;;;;;;1.15;100.00;97199.84;2038680;28;20689;-74
2021/11/28 00:25:55;;;;;;;84.20;47.85;;;;;;;1.17;100.00;97194.31;2039013;28;20696;-72
2021/11/28 00:26:57;;;;;;;85.03;48.15;;;;;;;1.13;100.00;97189.63;2038923;28;20235;-72
2021/11/28 00:27:59;;;;;;;78.55;47.65;;;;;;;1.11;100.00;97197.00;2039096;28;20227;-72
2021/11/28 00:29:01;;;;;;;73.63;46.55;;;;;;;1.11;100.00;97194.38;2038960;28;20227;-72
2021/11/28 00:30:03;;;;;;;73.43;45.92;;;;;;;1.09;100.00;97188.63;2038924;28;20222;-72
2021/11/28 00:31:05;;;;;;;71.60;45.42;;;;;;;1.05;100.00;97185.00;2038274;29;20223;-72
2021/11/28 00:32:07;;;;;;;72.35;45.42;;;;;;;1.04;100.00;97187.88;2030158;29;20234;-72
2021/11/28 00:33:09;;;;;;;74.18;45.70;;;;;;;1.04;100.00;97196.56;2029568;29;20227;-74
2021/11/28 00:34:10;;;;;;;73.65;45.75;;;;;;;1.02;100.00;97198.66;2030490;29;20239;-72
2021/11/28 00:35:12;;;;;;;81.45;47.53;;;;;;;1.00;100.00;97192.13;2038133;29;21481;-72
2021/11/28 00:36:13;;;;;;;79.95;47.53;;;;;;;0.99;100.00;97194.00;2038989;28;20223;-72
2021/11/28 00:37:16;;;;;;;70.72;45.22;;;;;;;0.98;100.00;97195.06;2038170;29;20716;-72
2021/11/28 00:38:18;;;;;;;71.55;46.25;;;;;;;0.94;100.00;97194.03;2030379;29;20223;-72
2021/11/28 00:39:21;;;;;;;76.00;46.47;;;;;;;0.93;100.00;97189.84;2038305;29;20219;-72
2021/11/28 00:40:23;;;;;;;78.22;47.40;;;;;;;0.93;100.00;97189.84;2038196;29;20642;-72
2021/11/28 00:41:26;;;;;;;79.80;48.08;;;;;;;0.92;100.00;97198.78;2029840;29;20690;-72
2021/11/28 00:42:26;;;;;;;78.00;47.10;;;;;;;0.91;100.00;97196.44;2038106;29;20231;-72
2021/11/28 00:43:28;;;;;;;76.33;47.27;;;;;;;0.90;100.00;97197.50;2038234;29;20223;-72
2021/11/28 00:44:29;;;;;;;83.75;48.03;;;;;;;0.87;100.00;97190.97;2038289;29;20279;-72
2021/11/28 00:45:32;;;;;;;73.47;45.85;;;;;;;0.85;100.00;97195.69;2038522;29;20683;-72
2021/11/28 00:46:33;;;;;;;75.72;46.33;;;;;;;0.85;100.00;97193.84;2038149;29;20238;-73
2021/11/28 00:47:35;;;;;;;72.68;47.08;;;;;;;0.86;100.00;97197.25;2038156;29;20233;-72
2021/11/28 00:48:37;;;;;;;77.80;47.15;;;;;;;0.85;100.00;97193.84;2038180;29;20226;-72
2021/11/28 00:49:49;;;;;;;77.28;46.38;;;;;;;0.85;100.00;97198.31;2029985;29;20263;-73
2021/11/28 00:51:00;;;;;;;76.10;44.85;;;;;;;0.82;100.00;97197.06;2038290;29;20218;-72
2021/11/28 00:52:04;;;;;;;79.85;46.28;;;;;;;0.85;100.00;97200.94;2031447;29;20645;-72
2021/11/28 00:53:05;;;;;;;77.93;46.88;;;;;;;0.80;100.00;97191.31;2038073;29;20231;-72
2021/11/28 00:54:08;;;;;;;88.40;50.17;;;;;;;0.83;100.00;97192.59;2037834;28;20306;-74
2021/11/28 00:55:11;;;;;;;82.95;50.08;;;;;;;0.83;100.00;97192.59;2038056;29;20235;-72
2021/11/28 00:56:14;;;;;;;79.15;46.83;;;;;;;0.84;100.00;97197.53;2030786;29;20231;-72
2021/11/28 00:57:15;;;;;;;77.78;46.05;;;;;;;0.84;100.00;97187.03;2030457;29;20722;-73
2021/11/28 00:58:17;;;;;;;86.90;49.43;;;;;;;0.83;100.00;97193.38;2038078;29;20597;-72
2021/11/28 00:59:20;;;;;;;83.28;48.40;;;;;;;0.85;100.00;97200.94;2038006;29;20601;-73
2021/11/28 01:00:22;;;;;;;85.28;51.08;;;;;;;0.88;100.00;97199.63;2030642;29;20224;-72
2021/11/28 01:01:23;;;;;;;90.65;52.05;;;;;;;0.87;100.00;97198.03;2037685;29;20263;-74
2021/11/28 01:02:24;;;;;;;86.67;48.97;;;;;;;0.87;100.00;97204.09;2038712;28;20218;-73
2021/11/28 01:03:25;;;;;;;89.63;50.35;;;;;;;0.87;100.00;97206.72;2038012;29;20732;-73
2021/11/28 01:04:27;;;;;;;95.90;51.50;;;;;;;0.89;100.00;97204.59;2030278;29;20675;-72
2021/11/28 01:05:28;;;;;;;95.60;51.63;;;;;;;0.93;100.00;97205.59;2038126;29;20283;-72
2021/11/28 01:06:30;;;;;;;87.80;50.58;;;;;;;0.90;100.00;97193.03;2038023;29;20266;-73
2021/11/28 01:07:32;;;;;;;96.38;51.58;;;;;;;0.93;100.00;97200.34;2037859;29;20250;-72
2021/11/28 01:08:34;;;;;;;103.00;53.47;;;;;;;0.95;100.00;97205.31;2037970;29;20616;-72
2021/11/28 01:09:35;;;;;;;94.78;52.38;;;;;;;0.95;100.00;97200.06;2037915;29;20301;-72
2021/11/28 01:10:37;;;;;;;96.93;52.00;;;;;;;0.98;100.00;97205.56;2037921;29;20303;-72
2021/11/28 01:11:39;;;;;;;102.07;51.97;;;;;;;1.02;100.00;97200.50;2029807;29;20230;-73
2021/11/28 01:12:42;;;;;;;107.55;54.15;;;;;;;1.08;100.00;97208.06;2030143;29;20242;-72
2021/11/28 01:13:43;;;;;;;98.75;54.17;;;;;;;1.13;100.00;97204.59;2038093;29;20226;-73
2021/11/28 01:14:45;;;;;;;96.95;54.28;;;;;;;1.13;100.00;97201.97;2038230;29;20250;-73
2021/11/28 01:15:47;;;;;;;99.05;54.35;;;;;;;1.15;100.00;97204.31;2030469;29;20698;-73
2021/11/28 01:16:48;;;;;;;104.85;54.20;;;;;;;1.17;100.00;97202.19;2038129;29;20227;-72
2021/11/28 01:17:49;;;;;;;99.28;53.78;;;;;;;1.17;100.00;97199.56;2030035;29;20292;-72
2021/11/28 01:18:53;;;;;;;99.93;54.13;;;;;;;1.16;100.00;97195.38;2038060;29;20274;-72
2021/11/28 01:19:54;;;;;;;91.78;51.90;;;;;;;1.16;100.00;97201.41;2037250;29;20235;-73
2021/11/28 01:20:56;;;;;;;93.20;50.33;;;;;;;1.13;100.00;97194.88;2029917;29;20283;-72
2021/11/28 01:21:59;;;;;;;93.30;50.22;;;;;;;1.13;100.00;97199.34;2038018;29;21606;-72
2021/11/28 01:23:00;;;;;;;84.57;48.70;;;;;;;1.13;100.00;97199.34;2038667;28;20310;-72
2021/11/28 01:24:02;;;;;;;85.47;49.60;;;;;;;1.10;100.00;97207.78;2037897;29;20309;-72
2021/11/28 01:25:04;;;;;;;87.93;50.47;;;;;;;1.13;100.00;97215.13;2030127;29;20232;-72
2021/11/28 01:26:07;;;;;;;94.03;51.95;;;;;;;1.15;100.00;97217.47;2030234;29;20309;-72
2021/11/28 01:27:12;;;;;;;90.90;51.05;;;;;;;1.16;100.00;97219.03;2037740;28;20233;-73
2021/11/28 01:28:14;;;;;;;96.60;50.33;;;;;;;1.11;100.00;97204.09;2037911;29;20326;-72
2021/11/28 01:29:15;;;;;;;91.85;51.45;;;;;;;1.12;100.00;97222.19;2030451;29;20278;-72
2021/11/28 01:30:17;;;;;;;89.28;50.03;;;;;;;1.15;100.00;97217.47;2038080;29;20278;-72
2021/11/28 01:31:18;;;;;;;87.75;50.67;;;;;;;1.15;100.00;97220.09;2038183;29;20226;-73
2021/11/28 01:32:20;;;;;;;85.07;50.03;;;;;;;1.16;100.00;97217.16;2030125;29;20233;-72
2021/11/28 01:33:21;;;;;;;87.25;49.92;;;;;;;1.16;100.00;97216.38;2038009;29;20222;-72
2021/11/28 01:34:25;;;;;;;86.93;49.75;;;;;;;1.17;100.00;97210.06;2029757;29;20235;-73
2021/11/28 01:35:26;;;;;;;86.10;49.55;;;;;;;1.16;100.00;97206.66;2037954;29;20704;-72
2021/11/28 01:36:28;;;;;;;84.50;48.77;;;;;;;1.14;100.00;97200.91;2038153;29;20653;-74
2021/11/28 01:37:29;;;;;;;79.97;47.70;;;;;;;1.15;100.00;97201.69;2030286;29;20287;-72
2021/11/28 01:38:31;;;;;;;80.20;47.83;;;;;;;1.12;100.00;97203.81;2030272;29;20263;-72
2021/11/28 01:39:32;;;;;;;84.78;48.75;;;;;;;1.10;100.00;97203.31;2030277;29;20283;-72
2021/11/28 01:40:36;;;;;;;78.32;46.90;;;;;;;1.06;100.00;97199.69;2030263;29;20306;-72
2021/11/28 01:41:38;;;;;;;86.22;49.63;;;;;;;1.08;100.00;97204.66;2030036;29;20227;-72
2021/11/28 01:42:43;;;;;;;77.68;46.92;;;;;;;1.08;100.00;97209.91;2030252;29;20706;-73
2021/11/28 01:43:46;;;;;;;85.57;47.17;;;;;;;1.07;100.00;97201.25;2038397;29;20663;-72
2021/11/28 01:44:47;;;;;;;80.55;47.15;;;;;;;1.07;100.00;97208.34;2039794;29;20751;-72
2021/11/28 01:45:52;;;;;;;84.80;48.93;;;;;;;1.04;100.00;97201.81;2039388;29;20673;-72
2021/11/28 01:46:53;;;;;;;79.35;47.88;;;;;;;1.04;100.00;97206.25;2038843;29;21011;-73
2021/11/28 01:47:59;;;;;;;85.03;49.33;;;;;;;1.02;100.00;97203.13;2039525;29;20784;-72
2021/11/28 01:49:01;;;;;;;93.05;49.97;;;;;;;0.99;100.00;97201.88;2039518;29;20222;-72
2021/11/28 01:50:04;;;;;;;88.95;51.40;;;;;;;0.98;100.00;97195.06;2031466;29;20219;-72
2021/11/28 01:51:05;;;;;;;99.07;54.15;;;;;;;0.97;100.00;97201.38;2039299;29;20281;-72
2021/11/28 01:52:07;;;;;;;98.40;51.95;;;;;;;1.00;100.00;97194.75;2031664;29;20223;-73
2021/11/28 01:53:11;;;;;;;100.93;53.92;;;;;;;1.01;100.00;97202.34;2031234;29;20768;-73
2021/11/28 01:54:14;;;;;;;95.72;53.88;;;;;;;1.03;100.00;97204.69;2031809;29;20312;-73
2021/11/28 01:55:18;;;;;;;103.45;55.55;;;;;;;1.10;100.00;97200.69;2039446;29;20729;-72
2021/11/28 01:56:24;;;;;;;105.65;54.92;;;;;;;1.17;100.00;97204.81;2039278;29;20576;-72
2021/11/28 01:57:24;;;;;;;98.22;53.03;;;;;;;1.19;100.00;97197.44;2031495;29;20253;-73
2021/11/28 01:58:28;;;;;;;90.83;52.27;;;;;;;1.26;100.00;97197.88;2031479;29;20231;-72
2021/11/28 01:59:29;;;;;;;95.05;52.50;;;;;;;1.33;100.00;97198.31;2039319;29;20222;-73
2021/11/28 02:00:34;;;;;;;97.00;53.50;;;;;;;1.34;100.00;97202.50;2031882;29;20250;-72
2021/11/28 02:01:38;;;;;;;93.25;51.55;;;;;;;1.33;100.00;97193.84;2039195;29;20338;-72
2021/11/28 02:02:40;;;;;;;92.90;50.33;;;;;;;1.30;100.00;97198.88;2031421;29;20227;-73
2021/11/28 02:03:42;;;;;;;94.95;51.55;;;;;;;1.27;100.00;97205.47;2031345;29;20235;-72
2021/11/28 02:04:44;;;;;;;97.97;51.88;;;;;;;1.23;100.00;97199.25;2039373;29;20234;-72
2021/11/28 02:05:48;;;;;;;89.80;51.67;;;;;;;1.24;100.00;97211.31;2039284;29;20226;-72
2021/11/28 02:06:50;;;;;;;87.80;50.30;;;;;;;1.25;100.00;97214.72;2039187;29;20305;-73
2021/11/28 02:07:52;;;;;;;93.20;52.08;;;;;;;1.23;100.00;97216.84;2031365;29;20227;-73
2021/11/28 02:08:56;;;;;;;94.97;52.80;;;;;;;1.30;100.00;97214.63;2039203;29;20289;-73
2021/11/28 02:09:57;;;;;;;93.88;52.60;;;;;;;1.37;100.00;97213.22;2039494;29;20238;-72
2021/11/28 02:10:59;;;;;;;92.20;52.93;;;;;;;1.39;100.00;97212.94;2039266;29;20751;-72
2021/11/28 02:12:02;;;;;;;93.25;51.88;;;;;;;1.38;100.00;97214.00;2039277;29;20227;-72
2021/11/28 02:13:09;;;;;;;88.80;52.35;;;;;;;1.33;100.00;97208.84;2031637;29;20231;-73
2021/11/28 02:14:11;;;;;;;92.97;53.33;;;;;;;1.30;100.00;97209.38;2031416;29;20749;-72
2021/11/28 02:15:22;;;;;;;96.82;53.55;;;;;;;1.29;100.00;97210.44;2032639;29;20281;-72
2021/11/28 02:16:27;;;;;;;92.05;53.20;;;;;;;1.28;100.00;97207.03;2031319;29;20314;-72
2021/11/28 02:17:29;;;;;;;100.03;54.47;;;;;;;1.27;100.00;97215.19;2031724;29;20299;-72
2021/11/28 02:18:31;;;;;;;95.97;53.67;;;;;;;1.23;100.00;97211.59;2031371;29;20223;-72
2021/11/28 02:19:33;;;;;;;88.05;53.55;;;;;;;1.19;100.00;97208.72;2031413;29;20622;-72
2021/11/28 02:20:34;;;;;;;99.57;54.17;;;;;;;1.18;100.00;97201.91;2031257;29;20278;-73
2021/11/28 02:21:37;;;;;;;97.47;52.90;;;;;;;1.27;100.00;97200.22;2031364;29;20227;-72
2021/11/28 02:22:41;;;;;;;96.88;55.53;;;;;;;1.22;100.00;97200.31;2039031;29;20222;-73
2021/11/28 02:23:43;;;;;;;97.20;54.35;;;;;;;1.31;100.00;97195.22;2039227;29;20231;-72
2021/11/28 02:24:45;;;;;;;93.38;55.25;;;;;;;1.28;100.00;97195.75;2039245;29;20227;-73
2021/11/28 02:25:47;;;;;;;98.68;54.15;;;;;;;1.22;100.00;97187.16;2031191;29;20216;-72
2021/11/28 02:26:49;;;;;;;101.97;54.92;;;;;;;1.21;100.00;97195.31;2031581;29;20738;-73
2021/11/28 02:27:51;;;;;;;108.07;58.27;;;;;;;1.17;100.00;97200.34;2038954;29;20662;-72
2021/11/28 02:28:53;;;;;;;104.05;58.05;;;;;;;1.17;100.00;97210.06;2031051;29;20733;-73
2021/11/28 02:29:57;;;;;;;100.82;56.22;;;;;;;1.11;100.00;97209.34;2039072;29;20674;-72
2021/11/28 02:30:59;;;;;;;115.18;57.00;;;;;;;1.06;100.00;97202.31;2039155;29;20222;-72
2021/11/28 02:32:01;;;;;;;109.93;59.53;;;;;;;1.08;100.00;97209.91;2031503;29;20235;-72
2021/11/28 02:33:02;;;;;;;106.78;60.45;;;;;;;1.06;100.00;97215.44;2038996;29;20509;-72
2021/11/28 02:34:05;;;;;;;104.40;59.03;;;;;;;1.06;100.00;97206.78;2031472;29;20223;-72
2021/11/28 02:35:07;;;;;;;112.07;60.72;;;;;;;1.06;100.00;97212.03;2031316;29;20224;-72
2021/11/28 02:36:12;;;;;;;116.38;61.78;;;;;;;1.10;100.00;97219.06;2038926;29;20261;-73
2021/11/28 02:37:19;;;;;;;115.90;61.80;;;;;;;1.09;100.00;97217.50;2039176;29;20233;-72
2021/11/28 02:38:21;;;;;;;115.50;59.88;;;;;;;1.06;100.00;97217.28;2038976;29;20309;-72
2021/11/28 02:39:23;;;;;;;114.80;60.67;;;;;;;1.02;100.00;97209.16;2038803;29;20226;-73
2021/11/28 02:40:25;;;;;;;118.00;60.47;;;;;;;1.04;100.00;97220.19;2038932;29;20455;-72
2021/11/28 02:41:27;;;;;;;113.60;60.78;;;;;;;1.05;100.00;97218.34;2031022;29;20660;-72
2021/11/28 02:42:28;;;;;;;110.57;61.35;;;;;;;1.04;100.00;97220.19;2038937;29;20218;-73
2021/11/28 02:43:33;;;;;;;110.70;62.33;;;;;;;1.03;100.00;97215.97;2039014;29;20678;-73
2021/11/28 02:44:35;;;;;;;113.82;62.45;;;;;;;1.03;100.00;97215.19;2031769;29;20234;-72
2021/11/28 02:45:37;;;;;;;112.50;60.75;;;;;;;1.03;100.00;97215.19;2031324;29;20729;-72
2021/11/28 02:46:38;;;;;;;114.10;59.58;;;;;;;1.03;100.00;97215.19;2030912;29;20303;-73
2021/11/28 02:47:40;;;;;;;117.50;63.73;;;;;;;1.02;100.00;97219.66;2039034;29;20230;-72
2021/11/28 02:48:41;;;;;;;106.57;60.42;;;;;;;1.00;100.00;97232.31;2031441;29;20239;-72
2021/11/28 02:49:43;;;;;;;116.22;60.85;;;;;;;0.98;100.00;97218.69;2031086;29;20231;-74
2021/11/28 02:50:45;;;;;;;106.60;59.03;;;;;;;0.97;100.00;97227.63;2039011;29;20231;-72
2021/11/28 02:51:47;;;;;;;110.63;59.47;;;;;;;0.90;100.00;97216.66;2039776;28;20703;-73
2021/11/28 02:52:55;;;;;;;111.40;61.65;;;;;;;0.97;100.00;97235.50;2039750;28;20285;-73
2021/11/28 02:53:57;;;;;;;109.68;60.22;;;;;;;0.98;100.00;97237.06;2038628;29;20227;-72
2021/11/28 02:54:59;;;;;;;117.78;61.17;;;;;;;0.98;100.00;97229.19;2031298;29;20255;-72
2021/11/28 02:56:04;;;;;;;106.03;58.28;;;;;;;0.97;100.00;97230.25;2030438;29;20240;-72
2021/11/28 02:57:08;;;;;;;98.38;57.47;;;;;;;0.99;100.00;97238.63;2039129;29;20285;-72
2021/11/28 02:58:13;;;;;;;108.82;59.33;;;;;;;0.99;100.00;97232.59;2038092;29;20305;-72
2021/11/28 02:59:16;;;;;;;103.47;57.00;;;;;;;0.97;100.00;97230.25;2032068;29;20227;-72
2021/11/28 03:00:19;;;;;;;100.63;54.77;;;;;;;0.99;100.00;97235.22;2038935;29;20229;-72
2021/11/28 03:01:22;;;;;;;99.72;54.58;;;;;;;0.97;100.00;97226.84;2031217;29;20223;-73
2021/11/28 03:03:01;;;;;;;102.07;55.58;;;;;;;0.98;100.00;97231.81;2037957;29;20226;-72
2021/11/28 03:04:05;;;;;;;107.70;56.60;;;;;;;1.00;100.00;97234.16;2038837;29;20226;-72
2021/11/28 03:05:08;;;;;;;101.03;56.40;;;;;;;1.02;100.00;97224.16;2039015;29;20230;-72
2021/11/28 03:06:09;;;;;;;103.70;55.67;;;;;;;1.04;100.00;97228.06;2038297;29;20285;-73
2021/11/28 03:07:15;;;;;;;103.90;56.37;;;;;;;1.05;100.00;97224.38;2038858;29;20230;-72
2021/11/28 03:08:18;;;;;;;106.90;56.47;;;;;;;1.05;100.00;97224.38;2038841;29;20454;-72
2021/11/28 03:09:20;;;;;;;106.93;59.15;;;;;;;1.06;100.00;97233.81;2038878;29;20677;-72
2021/11/28 03:10:36;;;;;;;101.55;56.50;;;;;;;1.05;100.00;97224.38;2031114;29;20236;-73
2021/11/28 03:11:43;;;;;;;104.22;55.10;;;;;;;1.04;100.00;97222.00;2032340;29;20309;-74
2021/11/28 03:12:44;;;;;;;101.72;56.85;;;;;;;1.05;100.00;97213.09;2031836;29;20331;-72
2021/11/28 03:13:48;;;;;;;100.57;57.20;;;;;;;1.05;100.00;97216.50;2030950;29;20275;-73
2021/11/28 03:14:49;;;;;;;109.97;59.00;;;;;;;1.07;100.00;97219.63;2031593;29;20227;-72
2021/11/28 03:15:54;;;;;;;100.07;56.87;;;;;;;1.08;100.00;97205.44;2031275;29;20292;-72
2021/11/28 03:16:55;;;;;;;100.70;54.95;;;;;;;1.10;100.00;97194.66;2031016;29;20235;-72
2021/11/28 03:17:57;;;;;;;108.53;57.33;;;;;;;1.11;100.00;97199.63;2030985;29;20235;-72
2021/11/28 03:19:00;;;;;;;111.80;58.28;;;;;;;1.16;100.00;97192.75;2038751;29;20238;-72
2021/11/28 03:20:01;;;;;;;111.40;59.30;;;;;;;1.18;100.00;97188.00;2038728;29;20262;-72
2021/11/28 03:21:06;;;;;;;108.60;59.27;;;;;;;1.17;100.00;97192.47;2031002;29;20282;-72
2021/11/28 03:22:07;;;;;;;109.63;57.13;;;;;;;1.22;100.00;97196.91;2030946;29;20336;-72
2021/11/28 03:23:10;;;;;;;110.57;58.10;;;;;;;1.22;100.00;97192.41;2038720;29;20230;-73
2021/11/28 03:24:13;;;;;;;105.25;56.38;;;;;;;1.23;100.00;97193.19;2038878;29;23256;-72
2021/11/28 03:25:16;;;;;;;97.82;55.72;;;;;;;1.22;100.00;97195.03;2038745;29;20602;-73
2021/11/28 03:26:22;;;;;;;98.50;54.92;;;;;;;1.25;100.00;97197.09;2031041;29;20235;-72
2021/11/28 03:27:23;;;;;;;100.13;54.22;;;;;;;1.22;100.00;97196.91;2031220;29;20230;-73
2021/11/28 03:28:26;;;;;;;99.22;54.30;;;;;;;1.23;100.00;97206.34;2030840;29;20239;-72
2021/11/28 03:29:26;;;;;;;103.60;55.75;;;;;;;1.20;100.00;97199.78;2038756;29;24397;-72
2021/11/28 03:30:45;;;;;;;88.80;51.97;;;;;;;1.20;100.00;97196.38;2038630;28;20234;-72
2021/11/28 03:32:22;;;;;;;91.53;50.90;;;;;;;1.18;100.00;97195.88;2030052;29;20653;-72
2021/11/28 03:33:54;;;;;;;88.07;50.95;;;;;;;1.13;100.00;97202.75;2029623;29;20227;-74
2021/11/28 03:35:07;;;;;;;85.90;49.35;;;;;;;1.11;100.00;97193.59;2036933;29;20301;-72
2021/11/28 03:36:10;;;;;;;90.03;50.10;;;;;;;1.15;100.00;97199.06;2038345;29;20230;-73
2021/11/28 03:37:11;;;;;;;90.78;51.72;;;;;;;1.10;100.00;97202.53;2038630;29;20233;-72
2021/11/28 03:38:13;;;;;;;86.20;52.33;;;;;;;1.07;100.00;97211.75;2030792;29;20714;-72
2021/11/28 03:39:17;;;;;;;87.60;51.25;;;;;;;1.03;100.00;97205.47;2038601;29;20226;-72
2021/11/28 03:40:20;;;;;;;85.93;50.10;;;;;;;1.02;100.00;97208.38;2031084;29;20220;-72
2021/11/28 03:41:24;;;;;;;85.63;49.60;;;;;;;1.01;100.00;97214.72;2030918;29;20554;-73
2021/11/28 03:42:25;;;;;;;87.68;51.58;;;;;;;0.99;100.00;97209.75;2038280;29;20235;-73
2021/11/28 03:43:28;;;;;;;83.47;49.72;;;;;;;0.99;100.00;97225.50;2031159;29;20699;-72
2021/11/28 03:44:29;;;;;;;81.93;50.13;;;;;;;0.97;100.00;97225.00;2038655;29;20293;-72
2021/11/28 03:45:45;;;;;;;84.63;50.42;;;;;;;0.96;100.00;97226.06;2038123;29;20234;-72
2021/11/28 03:46:46;;;;;;;87.43;50.78;;;;;;;0.97;100.00;97230.25;2031298;29;20227;-73
2021/11/28 03:47:49;;;;;;;83.13;50.17;;;;;;;0.96;100.00;97239.19;2038528;29;20227;-73
2021/11/28 03:48:50;;;;;;;84.60;49.40;;;;;;;0.98;100.00;97244.94;2038502;29;20289;-72
2021/11/28 03:49:56;;;;;;;88.28;51.08;;;;;;;1.01;100.00;97249.63;2030736;29;20238;-73
2021/11/28 03:50:57;;;;;;;84.53;50.78;;;;;;;1.00;100.00;97237.56;2038567;29;20317;-72
2021/11/28 03:51:59;;;;;;;92.17;52.73;;;;;;;0.99;100.00;97249.13;2030646;29;20231;-72
2021/11/28 03:53:00;;;;;;;93.38;52.35;;;;;;;0.97;100.00;97243.38;2030759;29;20744;-73
2021/11/28 03:54:04;;;;;;;82.80;49.88;;;;;;;0.99;100.00;97241.25;2038536;29;20223;-72
2021/11/28 03:55:09;;;;;;;89.63;51.75;;;;;;;0.99;100.00;97240.47;2038492;29;20230;-73
2021/11/28 03:56:10;;;;;;;86.20;51.30;;;;;;;0.94;100.00;97238.66;2038009;29;20721;-73
2021/11/28 03:57:11;;;;;;;96.05;51.13;;;;;;;0.94;100.00;97243.13;2030842;29;20266;-72
2021/11/28 03:58:14;;;;;;;90.70;51.92;;;;;;;0.91;100.00;97241.06;2030747;29;20258;-72
2021/11/28 03:59:15;;;;;;;90.80;52.40;;;;;;;0.91;100.00;97243.69;2030682;29;20614;-72
2021/11/28 04:00:18;;;;;;;87.43;51.65;;;;;;;0.88;100.00;97242.41;2030933;29;20647;-72
2021/11/28 04:01:26;;;;;;;98.60;52.90;;;;;;;0.88;100.00;97239.00;2038265;28;20239;-74
2021/11/28 04:02:27;;;;;;;96.45;54.45;;;;;;;0.88;100.00;97239.78;2038338;29;20608;-72
2021/11/28 04:03:28;;;;;;;93.73;52.47;;;;;;;0.87;100.00;97234.78;2038454;29;20309;-72
2021/11/28 04:04:29;;;;;;;95.47;53.63;;;;;;;0.86;100.00;97223.50;2038371;29;20226;-72
2021/11/28 04:05:54;;;;;;;100.80;53.58;;;;;;;0.83;100.00;97231.97;2038004;28;20287;-73
2021/11/28 04:06:55;;;;;;;99.40;56.17;;;;;;;0.85;100.00;97230.59;2038098;29;20629;-72
2021/11/28 04:08:00;;;;;;;101.13;56.35;;;;;;;0.87;100.00;97227.72;2037828;29;20231;-74
2021/11/28 04:09:03;;;;;;;103.00;55.92;;;;;;;0.88;100.00;97239.78;2038415;29;20237;-73
2021/11/28 04:10:08;;;;;;;107.93;57.33;;;;;;;0.87;100.00;97227.72;2030665;29;20227;-72
2021/11/28 04:11:10;;;;;;;104.40;54.60;;;;;;;0.83;100.00;97232.72;2038055;29;20231;-73
2021/11/28 04:12:11;;;;;;;116.07;57.85;;;;;;;0.87;100.00;97232.97;2038352;29;20283;-72
2021/11/28 04:13:14;;;;;;;108.65;56.00;;;;;;;0.85;100.00;97229.81;2030748;29;20250;-72
2021/11/28 04:14:18;;;;;;;101.47;55.85;;;;;;;0.85;100.00;97230.59;2038688;29;20306;-72
2021/11/28 04:15:21;;;;;;;115.68;59.00;;;;;;;0.83;100.00;97237.97;2038411;29;20651;-72
2021/11/28 04:16:42;;;;;;;115.80;56.90;;;;;;;0.82;100.00;97233.03;2032839;29;20230;-72
2021/11/28 04:17:44;;;;;;;110.63;58.63;;;;;;;0.81;100.00;97231.47;2038380;29;20309;-73
2021/11/28 04:18:45;;;;;;;119.22;60.33;;;;;;;0.78;100.00;97227.56;2038204;29;20238;-72
2021/11/28 04:19:51;;;;;;;127.43;61.28;;;;;;;0.76;100.00;97229.66;2030935;29;20231;-73
2021/11/28 04:20:54;;;;;;;105.93;57.20;;;;;;;0.75;100.00;97229.94;2037756;29;20698;-73
2021/11/28 04:21:57;;;;;;;115.32;58.72;;;;;;;0.76;100.00;97229.66;2038217;29;20280;-73
2021/11/28 04:23:01;;;;;;;124.60;59.90;;;;;;;0.75;100.00;97230.72;2030985;29;20228;-73
2021/11/28 04:24:03;;;;;;;120.93;62.25;;;;;;;0.74;100.00;97228.38;2030509;29;20230;-72
2021/11/28 04:25:09;;;;;;;121.13;60.47;;;;;;;0.74;100.00;97229.16;2030407;29;20306;-73
2021/11/28 04:26:10;;;;;;;129.07;62.35;;;;;;;0.74;100.00;97231.00;2030530;29;20718;-74
2021/11/28 04:27:12;;;;;;;118.03;60.13;;;;;;;0.73;100.00;97234.69;2030441;29;20589;-73
2021/11/28 04:28:13;;;;;;;125.55;62.53;;;;;;;0.75;100.00;97233.34;2030467;29;20263;-73
2021/11/28 04:29:17;;;;;;;120.80;61.83;;;;;;;0.72;100.00;97225.25;2038171;29;20230;-73
2021/11/28 04:30:19;;;;;;;126.60;63.65;;;;;;;0.75;100.00;97222.84;2038266;29;20247;-73
2021/11/28 04:31:20;;;;;;;135.02;64.43;;;;;;;0.76;100.00;97221.00;2038123;29;20281;-73
2021/11/28 04:32:21;;;;;;;134.18;63.33;;;;;;;0.76;100.00;97221.00;2030497;29;20219;-75
2021/11/28 04:33:32;;;;;;;129.93;61.15;;;;;;;0.74;100.00;97207.38;2031656;29;20256;-72
2021/11/28 04:34:33;;;;;;;129.30;61.75;;;;;;;0.77;100.00;97214.69;2030411;29;20330;-73
2021/11/28 04:35:38;;;;;;;128.07;63.03;;;;;;;0.77;100.00;97207.59;2030445;29;20759;-72
2021/11/28 04:36:41;;;;;;;129.50;63.95;;;;;;;0.80;100.00;97208.91;2030607;29;20565;-73
2021/11/28 04:37:43;;;;;;;137.77;63.05;;;;;;;0.78;100.00;97211.81;2030858;29;20258;-73
2021/11/28 04:38:44;;;;;;;127.50;63.70;;;;;;;0.77;100.00;97199.72;2030309;29;20278;-72
2021/11/28 04:39:45;;;;;;;130.23;63.85;;;;;;;0.79;100.00;97204.72;2030344;29;20278;-72
2021/11/28 04:40:49;;;;;;;130.30;62.30;;;;;;;0.75;100.00;97190.56;2030143;29;20228;-73
2021/11/28 04:41:51;;;;;;;127.45;63.05;;;;;;;0.81;100.00;97194.72;2026794;29;20687;-72
2021/11/28 04:42:53;;;;;;;123.63;61.97;;;;;;;0.80;100.00;97193.16;2029976;29;20235;-73
2021/11/28 04:43:55;;;;;;;123.88;62.42;;;;;;;0.79;100.00;97196.84;2037959;29;20289;-72
2021/11/28 04:44:57;;;;;;;128.52;64.20;;;;;;;0.75;100.00;97185.31;2030441;29;20234;-73
2021/11/28 04:45:58;;;;;;;130.35;63.20;;;;;;;0.79;100.00;97187.13;2030488;29;20243;-72
2021/11/28 04:47:00;;;;;;;141.73;67.00;;;;;;;0.80;100.00;97191.31;2030637;29;20230;-71
2021/11/28 04:48:02;;;;;;;135.75;67.18;;;;;;;0.80;100.00;97183.44;2038079;29;20709;-72
2021/11/28 04:49:04;;;;;;;122.18;62.95;;;;;;;0.83;100.00;97184.72;2038121;29;20636;-72
2021/11/28 04:50:13;;;;;;;137.25;65.63;;;;;;;0.87;100.00;97185.72;2037896;28;20253;-72
2021/11/28 04:51:14;;;;;;;127.30;60.53;;;;;;;0.89;100.00;97188.84;2038007;29;20600;-73